Station Historical Data
Daily Summary for March 3, 2012 Units:  English    Metric   Both
« Previous Day
Next Day »
Daily Weekly Monthly Yearly Custom
  High: Low: Average:
Temperature: 54.6 °F 35.0 °F 46 °F
Dew Point: 40.2 °F 21.6 °F 28.7 °F
Humidity: 84% 29% 53%
Wind Speed: 18.0mph 1.0mph 6mph
Wind Gust: 25.0mph - -
Wind- - WSW
Pressure: 29.96 in 29.71 in -
Precipitation: 0.00 in    
Historical Graphs
 
 
Tabular Data for March 3, 2012
Time Temperature Dew Point Pressure Wind Wind Speed Wind Gust Humidity Rainfall Rate (Hourly) Conditions
00:00 52.0 °F 40.2 °F 29.71 in NW 18.0 mph 19.0 mph 64% 0.00 in
00:05 51.6 °F 39.4 °F 29.72 in NW 13.0 mph 17.0 mph 63% 0.00 in
00:10 51.4 °F 39.2 °F 29.73 in NW 12.0 mph 18.0 mph 63% 0.00 in
00:15 51.1 °F 39.4 °F 29.73 in NNW 12.0 mph 21.0 mph 64% 0.00 in
00:20 50.6 °F 39.3 °F 29.73 in NW 11.0 mph 25.0 mph 65% 0.00 in
00:26 50.2 °F 39.7 °F 29.73 in NW 6.0 mph 15.0 mph 67% 0.00 in
00:31 49.9 °F 39.4 °F 29.73 in NNW 10.0 mph 17.0 mph 67% 0.00 in
00:36 49.3 °F 39.2 °F 29.74 in WNW 16.0 mph 17.0 mph 68% 0.00 in
00:41 48.5 °F 39.9 °F 29.74 in NNW 9.0 mph 15.0 mph 72% 0.00 in
00:46 48.1 °F 39.2 °F 29.75 in NW 9.0 mph 15.0 mph 71% 0.00 in
00:51 48.0 °F 39.4 °F 29.75 in NW 8.0 mph 14.0 mph 72% 0.00 in
00:56 47.9 °F 39.3 °F 29.75 in NW 10.0 mph 15.0 mph 72% 0.00 in
01:01 47.7 °F 39.1 °F 29.75 in NW 10.0 mph 14.0 mph 72% 0.00 in
01:06 47.6 °F 38.7 °F 29.75 in North 10.0 mph 13.0 mph 71% 0.00 in
01:11 47.4 °F 38.1 °F 29.75 in NW 6.0 mph 14.0 mph 70% 0.00 in
01:16 47.3 °F 38.0 °F 29.75 in NNW 13.0 mph 14.0 mph 70% 0.00 in
01:21 47.2 °F 37.9 °F 29.76 in NW 10.0 mph 13.0 mph 70% 0.00 in
01:26 46.9 °F 37.6 °F 29.76 in North 5.0 mph 11.0 mph 70% 0.00 in
01:31 46.8 °F 37.2 °F 29.76 in NNW 9.0 mph 15.0 mph 69% 0.00 in
01:36 46.7 °F 36.7 °F 29.76 in NNW 14.0 mph 19.0 mph 68% 0.00 in
01:41 46.5 °F 36.5 °F 29.77 in NW 11.0 mph 14.0 mph 68% 0.00 in
01:46 46.3 °F 36.3 °F 29.77 in NNW 11.0 mph 13.0 mph 68% 0.00 in
01:51 46.3 °F 36.0 °F 29.78 in NNW 15.0 mph 17.0 mph 67% 0.00 in
01:56 46.2 °F 34.7 °F 29.78 in NW 9.0 mph 16.0 mph 64% 0.00 in
02:01 45.9 °F 32.4 °F 29.78 in NNW 14.0 mph 20.0 mph 59% 0.00 in
02:06 45.6 °F 31.3 °F 29.78 in North 16.0 mph 18.0 mph 57% 0.00 in
02:11 45.3 °F 31.4 °F 29.79 in North 11.0 mph 19.0 mph 58% 0.00 in
02:16 45.0 °F 32.0 °F 29.79 in NNW 9.0 mph 13.0 mph 60% 0.00 in
02:21 44.7 °F 31.3 °F 29.79 in North 7.0 mph 16.0 mph 59% 0.00 in
02:26 44.4 °F 31.0 °F 29.79 in NNW 10.0 mph 18.0 mph 59% 0.00 in
02:31 44.1 °F 31.1 °F 29.79 in NW 13.0 mph 13.0 mph 60% 0.00 in
02:36 43.9 °F 30.5 °F 29.79 in NNW 14.0 mph 20.0 mph 59% 0.00 in
02:41 43.6 °F 30.6 °F 29.79 in NE 16.0 mph 17.0 mph 60% 0.00 in
02:46 43.4 °F 30.5 °F 29.80 in NNW 14.0 mph 16.0 mph 60% 0.00 in
02:51 43.2 °F 30.7 °F 29.80 in NNW 8.0 mph 16.0 mph 61% 0.00 in
02:56 42.9 °F 30.4 °F 29.81 in North 6.0 mph 14.0 mph 61% 0.00 in
03:01 42.8 °F 30.7 °F 29.81 in NNW 12.0 mph 19.0 mph 62% 0.00 in
03:06 42.7 °F 30.6 °F 29.81 in North 10.0 mph 22.0 mph 62% 0.00 in
03:11 42.6 °F 30.5 °F 29.81 in NNW 8.0 mph 15.0 mph 62% 0.00 in
03:17 42.3 °F 30.6 °F 29.81 in NNE 8.0 mph 12.0 mph 63% 0.00 in
03:22 42.0 °F 30.7 °F 29.82 in NW 10.0 mph 14.0 mph 64% 0.00 in
03:27 41.9 °F 30.6 °F 29.82 in North 10.0 mph 18.0 mph 64% 0.00 in
03:32 41.8 °F 30.5 °F 29.82 in North 11.0 mph 18.0 mph 64% 0.00 in
03:37 41.5 °F 30.6 °F 29.82 in NNW 8.0 mph 17.0 mph 65% 0.00 in
03:42 41.3 °F 30.4 °F 29.82 in North 13.0 mph 16.0 mph 65% 0.00 in
03:47 41.2 °F 30.7 °F 29.82 in North 9.0 mph 11.0 mph 66% 0.00 in
03:52 40.9 °F 30.8 °F 29.82 in North 7.0 mph 10.0 mph 67% 0.00 in
03:57 40.6 °F 30.9 °F 29.82 in North 6.0 mph 9.0 mph 68% 0.00 in
04:02 40.3 °F 31.0 °F 29.81 in North 7.0 mph 10.0 mph 69% 0.00 in
04:07 40.1 °F 31.1 °F 29.82 in NNW 8.0 mph 12.0 mph 70% 0.00 in
04:12 39.9 °F 30.9 °F 29.82 in North 7.0 mph 9.0 mph 70% 0.00 in
04:17 39.7 °F 31.1 °F 29.82 in NE 6.0 mph 8.0 mph 71% 0.00 in
04:22 39.6 °F 31.0 °F 29.83 in NNE 4.0 mph 9.0 mph 71% 0.00 in
04:27 39.3 °F 30.7 °F 29.83 in North 6.0 mph 10.0 mph 71% 0.00 in
04:32 39.2 °F 31.0 °F 29.83 in NNE 4.0 mph 10.0 mph 72% 0.00 in
04:38 39.0 °F 30.8 °F 29.83 in North 3.0 mph 9.0 mph 72% 0.00 in
04:43 38.7 °F 30.8 °F 29.83 in NNW 5.0 mph 6.0 mph 73% 0.00 in
04:48 38.4 °F 30.9 °F 29.84 in NNW 4.0 mph 5.0 mph 74% 0.00 in
04:53 38.1 °F 30.6 °F 29.84 in North 4.0 mph 5.0 mph 74% 0.00 in
04:58 38.0 °F 30.8 °F 29.84 in North 6.0 mph 7.0 mph 75% 0.00 in
05:03 37.9 °F 30.7 °F 29.84 in NNW 5.0 mph 7.0 mph 75% 0.00 in
05:08 37.9 °F 31.0 °F 29.84 in North 4.0 mph 7.0 mph 76% 0.00 in
05:13 37.7 °F 30.8 °F 29.84 in North 3.0 mph 6.0 mph 76% 0.00 in
05:18 37.5 °F 31.0 °F 29.85 in North 3.0 mph 5.0 mph 77% 0.00 in
05:23 37.3 °F 30.8 °F 29.85 in NNE 2.0 mph 3.0 mph 77% 0.00 in
05:28 37.1 °F 30.6 °F 29.85 in North 2.0 mph 4.0 mph 77% 0.00 in
05:33 36.8 °F 30.6 °F 29.86 in NNW 2.0 mph 4.0 mph 78% 0.00 in
05:38 36.8 °F 30.6 °F 29.86 in North 3.0 mph 6.0 mph 78% 0.00 in
05:43 36.6 °F 30.7 °F 29.85 in North 3.0 mph 6.0 mph 79% 0.00 in
05:48 36.4 °F 30.8 °F 29.86 in NW 3.0 mph 5.0 mph 80% 0.00 in
05:53 36.3 °F 30.7 °F 29.87 in NNW 2.0 mph 6.0 mph 80% 0.00 in
05:58 36.2 °F 30.6 °F 29.87 in North 3.0 mph 5.0 mph 80% 0.00 in
06:03 36.1 °F 30.8 °F 29.87 in North 3.0 mph 5.0 mph 81% 0.00 in
06:08 36.1 °F 30.8 °F 29.88 in NNW 3.0 mph 5.0 mph 81% 0.00 in
06:13 35.9 °F 30.6 °F 29.88 in NNW 4.0 mph 5.0 mph 81% 0.00 in
06:18 35.8 °F 30.9 °F 29.89 in NNW 2.0 mph 3.0 mph 82% 0.00 in
06:23 35.7 °F 30.8 °F 29.89 in North 3.0 mph 6.0 mph 82% 0.00 in
06:28 35.6 °F 30.7 °F 29.89 in NNW 3.0 mph 4.0 mph 82% 0.00 in
06:33 35.5 °F 30.9 °F 29.90 in NNW 5.0 mph 5.0 mph 83% 0.00 in
06:38 35.4 °F 30.8 °F 29.90 in NNW 4.0 mph 4.0 mph 83% 0.00 in
06:43 35.6 °F 31.0 °F 29.90 in NNW 3.0 mph 7.0 mph 83% 0.00 in
06:48 35.6 °F 31.0 °F 29.91 in NNW 3.0 mph 7.0 mph 83% 0.00 in
06:54 35.5 °F 30.9 °F 29.91 in NW 5.0 mph 7.0 mph 83% 0.00 in
06:59 35.4 °F 30.8 °F 29.91 in NW 4.0 mph 6.0 mph 83% 0.00 in
07:04 35.4 °F 30.8 °F 29.91 in NNW 3.0 mph 5.0 mph 83% 0.00 in
07:09 35.3 °F 30.7 °F 29.91 in NNW 3.0 mph 5.0 mph 83% 0.00 in
07:14 35.1 °F 30.8 °F 29.91 in NNW 4.0 mph 5.0 mph 84% 0.00 in
07:19 35.1 °F 30.8 °F 29.91 in NW 3.0 mph 5.0 mph 84% 0.00 in
07:24 35.0 °F 30.7 °F 29.91 in NNW 3.0 mph 6.0 mph 84% 0.00 in
07:29 35.1 °F 30.8 °F 29.91 in NW 3.0 mph 7.0 mph 84% 0.00 in
07:34 35.1 °F 30.8 °F 29.91 in North 3.0 mph 5.0 mph 84% 0.00 in
07:39 35.2 °F 30.9 °F 29.91 in North 3.0 mph 5.0 mph 84% 0.00 in
07:44 35.6 °F 31.2 °F 29.91 in NNE 2.0 mph 4.0 mph 84% 0.00 in
07:49 35.9 °F 31.5 °F 29.91 in NNE 2.0 mph 4.0 mph 84% 0.00 in
07:54 36.2 °F 31.5 °F 29.91 in NNW 3.0 mph 4.0 mph 83% 0.00 in
07:59 36.4 °F 31.7 °F 29.91 in NNW 2.0 mph 4.0 mph 83% 0.00 in
08:04 36.6 °F 31.9 °F 29.91 in North 4.0 mph 4.0 mph 83% 0.00 in
08:09 36.9 °F 32.2 °F 29.92 in NNE 4.0 mph 5.0 mph 83% 0.00 in
08:14 37.2 °F 32.5 °F 29.92 in North 5.0 mph 5.0 mph 83% 0.00 in
08:19 37.5 °F 32.5 °F 29.92 in NNE 5.0 mph 6.0 mph 82% 0.00 in
08:24 38.0 °F 33.0 °F 29.93 in NNW 3.0 mph 6.0 mph 82% 0.00 in
08:29 38.4 °F 33.1 °F 29.93 in NNE 4.0 mph 5.0 mph 81% 0.00 in
08:34 38.8 °F 32.9 °F 29.93 in North 5.0 mph 7.0 mph 79% 0.00 in
08:39 39.2 °F 32.9 °F 29.93 in North 4.0 mph 9.0 mph 78% 0.00 in
08:44 39.6 °F 33.0 °F 29.93 in North 6.0 mph 6.0 mph 77% 0.00 in
08:49 40.0 °F 33.4 °F 29.94 in NE 4.0 mph 6.0 mph 77% 0.00 in
08:54 40.4 °F 33.1 °F 29.94 in North 6.0 mph 9.0 mph 75% 0.00 in
08:59 40.7 °F 32.4 °F 29.94 in NNW 2.0 mph 9.0 mph 72% 0.00 in
09:04 41.0 °F 32.0 °F 29.94 in NNE 6.0 mph 8.0 mph 70% 0.00 in
09:09 41.4 °F 32.4 °F 29.94 in NNE 3.0 mph 8.0 mph 70% 0.00 in
09:14 41.9 °F 32.1 °F 29.94 in North 4.0 mph 7.0 mph 68% 0.00 in
09:19 42.3 °F 32.5 °F 29.94 in NNE 4.0 mph 7.0 mph 68% 0.00 in
09:24 42.9 °F 33.1 °F 29.94 in NNE 4.0 mph 5.0 mph 68% 0.00 in
09:29 43.4 °F 32.0 °F 29.94 in NE 5.0 mph 7.0 mph 64% 0.00 in
09:34 43.5 °F 31.8 °F 29.94 in NNE 8.0 mph 8.0 mph 63% 0.00 in
09:39 44.1 °F 32.7 °F 29.94 in North 3.0 mph 7.0 mph 64% 0.00 in
09:44 44.5 °F 31.5 °F 29.94 in NNE 4.0 mph 6.0 mph 60% 0.00 in
09:50 44.5 °F 31.1 °F 29.94 in NNE 5.0 mph 9.0 mph 59% 0.00 in
09:55 44.8 °F 31.8 °F 29.95 in NNE 9.0 mph 9.0 mph 60% 0.00 in
10:00 45.3 °F 31.8 °F 29.95 in NNW 2.0 mph 7.0 mph 59% 0.00 in
10:05 46.0 °F 32.5 °F 29.95 in NNE 4.0 mph 8.0 mph 59% 0.00 in
10:10 46.4 °F 30.7 °F 29.95 in NNE 4.0 mph 8.0 mph 54% 0.00 in
10:15 46.8 °F 31.0 °F 29.95 in NW 2.0 mph 7.0 mph 54% 0.00 in
10:20 47.3 °F 31.0 °F 29.95 in NW 5.0 mph 9.0 mph 53% 0.00 in
10:25 47.3 °F 29.6 °F 29.95 in NNW 7.0 mph 15.0 mph 50% 0.00 in
10:30 47.3 °F 32.0 °F 29.95 in NNW 6.0 mph 10.0 mph 55% 0.00 in
10:35 47.3 °F 30.6 °F 29.95 in NW 3.0 mph 10.0 mph 52% 0.00 in
10:40 47.8 °F 31.0 °F 29.96 in NW 9.0 mph 11.0 mph 52% 0.00 in
10:45 48.2 °F 30.5 °F 29.95 in North 8.0 mph 11.0 mph 50% 0.00 in
10:50 48.1 °F 29.9 °F 29.95 in NNW 8.0 mph 13.0 mph 49% 0.00 in
10:55 48.2 °F 28.9 °F 29.95 in NNE 4.0 mph 11.0 mph 47% 0.00 in
11:00 48.3 °F 29.0 °F 29.95 in NW 9.0 mph 14.0 mph 47% 0.00 in
11:05 48.5 °F 29.7 °F 29.93 in NW 6.0 mph 12.0 mph 48% 0.00 in
11:10 48.6 °F 30.8 °F 29.93 in NNE 11.0 mph 13.0 mph 50% 0.00 in
11:15 48.6 °F 30.3 °F 29.93 in NNW 9.0 mph 15.0 mph 49% 0.00 in
11:20 48.9 °F 29.6 °F 29.93 in NNE 7.0 mph 14.0 mph 47% 0.00 in
11:25 48.8 °F 30.0 °F 29.93 in NNE 11.0 mph 13.0 mph 48% 0.00 in
11:30 48.8 °F 29.5 °F 29.93 in NNE 10.0 mph 17.0 mph 47% 0.00 in
11:35 48.7 °F 29.4 °F 29.92 in NE 12.0 mph 12.0 mph 47% 0.00 in
11:41 48.9 °F 29.0 °F 29.93 in North 8.0 mph 11.0 mph 46% 0.00 in
11:46 49.6 °F 30.7 °F 29.92 in NNE 10.0 mph 12.0 mph 48% 0.00 in
11:51 49.6 °F 30.2 °F 29.93 in NNW 12.0 mph 12.0 mph 47% 0.00 in
11:56 50.1 °F 32.7 °F 29.93 in NW 8.0 mph 9.0 mph 51% 0.00 in
12:01 50.5 °F 31.6 °F 29.93 in NW 3.0 mph 10.0 mph 48% 0.00 in
12:06 50.6 °F 32.7 °F 29.92 in ENE 6.0 mph 8.0 mph 50% 0.00 in
12:11 50.9 °F 31.4 °F 29.92 in NNE 4.0 mph 9.0 mph 47% 0.00 in
12:16 51.1 °F 30.0 °F 29.92 in NNW 4.0 mph 10.0 mph 44% 0.00 in
12:21 51.3 °F 30.7 °F 29.92 in NNW 11.0 mph 11.0 mph 45% 0.00 in
12:26 51.4 °F 29.7 °F 29.91 in NNW 8.0 mph 13.0 mph 43% 0.00 in
12:31 51.2 °F 26.5 °F 29.91 in WNW 8.0 mph 9.0 mph 38% 0.00 in
12:36 50.6 °F 26.6 °F 29.90 in NW 9.0 mph 15.0 mph 39% 0.00 in
12:41 50.7 °F 27.9 °F 29.89 in NNW 8.0 mph 15.0 mph 41% 0.00 in
12:46 51.4 °F 27.9 °F 29.89 in NW 9.0 mph 15.0 mph 40% 0.00 in
12:51 51.0 °F 27.5 °F 29.89 in NW 9.0 mph 11.0 mph 40% 0.00 in
12:56 51.0 °F 26.9 °F 29.89 in NNE 8.0 mph 14.0 mph 39% 0.00 in
13:01 50.9 °F 26.8 °F 29.89 in NNW 5.0 mph 11.0 mph 39% 0.00 in
13:06 51.7 °F 28.2 °F 29.89 in NNW 8.0 mph 13.0 mph 40% 0.00 in
13:11 52.0 °F 28.5 °F 29.88 in NNW 9.0 mph 13.0 mph 40% 0.00 in
13:16 52.1 °F 27.9 °F 29.88 in NNW 8.0 mph 10.0 mph 39% 0.00 in
13:21 52.6 °F 29.0 °F 29.87 in North 11.0 mph 15.0 mph 40% 0.00 in
13:26 53.1 °F 28.8 °F 29.86 in NW 5.0 mph 11.0 mph 39% 0.00 in
13:31 52.8 °F 28.5 °F 29.86 in NNW 12.0 mph 14.0 mph 39% 0.00 in
13:36 52.4 °F 27.6 °F 29.86 in NNE 6.0 mph 10.0 mph 38% 0.00 in
13:41 52.8 °F 27.3 °F 29.86 in WNW 11.0 mph 13.0 mph 37% 0.00 in
13:47 53.0 °F 26.8 °F 29.85 in WNW 8.0 mph 14.0 mph 36% 0.00 in
13:52 52.9 °F 26.7 °F 29.85 in NW 7.0 mph 13.0 mph 36% 0.00 in
13:57 52.7 °F 26.5 °F 29.85 in NNW 4.0 mph 11.0 mph 36% 0.00 in
14:02 53.4 °F 29.1 °F 29.85 in NNW 7.0 mph 10.0 mph 39% 0.00 in
14:07 52.9 °F 28.6 °F 29.86 in NNW 11.0 mph 11.0 mph 39% 0.00 in
14:12 52.8 °F 29.2 °F 29.86 in NW 7.0 mph 8.0 mph 40% 0.00 in
14:17 52.9 °F 29.2 °F 29.86 in NNW 4.0 mph 11.0 mph 40% 0.00 in
14:22 52.6 °F 26.4 °F 29.86 in WNW 4.0 mph 7.0 mph 36% 0.00 in
14:27 53.2 °F 28.9 °F 29.86 in WNW 7.0 mph 7.0 mph 39% 0.00 in
14:32 53.2 °F 27.0 °F 29.86 in West 2.0 mph 9.0 mph 36% 0.00 in
14:37 53.5 °F 26.5 °F 29.86 in WNW 6.0 mph 8.0 mph 35% 0.00 in
14:42 53.7 °F 25.3 °F 29.86 in NW 10.0 mph 14.0 mph 33% 0.00 in
14:47 53.7 °F 24.6 °F 29.86 in West 3.0 mph 8.0 mph 32% 0.00 in
14:52 54.3 °F 25.8 °F 29.85 in West 6.0 mph 10.0 mph 33% 0.00 in
14:57 54.3 °F 25.8 °F 29.86 in WNW 3.0 mph 6.0 mph 33% 0.00 in
15:02 54.3 °F 27.9 °F 29.85 in East 2.0 mph 5.0 mph 36% 0.00 in
15:07 54.2 °F 27.2 °F 29.85 in WNW 7.0 mph 8.0 mph 35% 0.00 in
15:12 53.9 °F 25.5 °F 29.85 in NW 4.0 mph 11.0 mph 33% 0.00 in
15:17 53.8 °F 26.1 °F 29.85 in WNW 8.0 mph 9.0 mph 34% 0.00 in
15:22 53.7 °F 25.3 °F 29.85 in WNW 6.0 mph 9.0 mph 33% 0.00 in
15:27 54.0 °F 24.8 °F 29.85 in WNW 6.0 mph 10.0 mph 32% 0.00 in
15:32 54.2 °F 26.5 °F 29.85 in NW 4.0 mph 6.0 mph 34% 0.00 in
15:37 54.0 °F 25.6 °F 29.85 in NW 8.0 mph 12.0 mph 33% 0.00 in
15:42 54.0 °F 27.0 °F 29.85 in WNW 9.0 mph 9.0 mph 35% 0.00 in
15:47 53.8 °F 28.2 °F 29.85 in NW 5.0 mph 12.0 mph 37% 0.00 in
15:52 54.1 °F 27.1 °F 29.85 in WNW 3.0 mph 7.0 mph 35% 0.00 in
15:57 53.9 °F 26.2 °F 29.85 in West 4.0 mph 13.0 mph 34% 0.00 in
16:02 53.4 °F 26.5 °F 29.85 in WNW 6.0 mph 9.0 mph 35% 0.00 in
16:07 53.2 °F 25.6 °F 29.84 in West 3.0 mph 10.0 mph 34% 0.00 in
16:12 53.2 °F 27.0 °F 29.84 in WSW 5.0 mph 9.0 mph 36% 0.00 in
16:17 53.2 °F 27.0 °F 29.84 in West 7.0 mph 8.0 mph 36% 0.00 in
16:22 53.5 °F 27.2 °F 29.83 in West 10.0 mph 10.0 mph 36% 0.00 in
16:28 54.1 °F 27.8 °F 29.83 in West 8.0 mph 10.0 mph 36% 0.00 in
16:33 54.1 °F 26.4 °F 29.84 in West 4.0 mph 8.0 mph 34% 0.00 in
16:38 53.8 °F 26.8 °F 29.84 in WNW 5.0 mph 10.0 mph 35% 0.00 in
16:43 53.5 °F 26.5 °F 29.84 in WNW 5.0 mph 11.0 mph 35% 0.00 in
16:48 53.3 °F 26.4 °F 29.85 in WNW 5.0 mph 7.0 mph 35% 0.00 in
16:53 53.8 °F 26.8 °F 29.84 in West 5.0 mph 12.0 mph 35% 0.00 in
16:58 54.3 °F 25.8 °F 29.83 in WNW 7.0 mph 9.0 mph 33% 0.00 in
17:03 54.3 °F 25.8 °F 29.83 in WNW 4.0 mph 9.0 mph 33% 0.00 in
17:08 54.6 °F 25.4 °F 29.82 in WNW 8.0 mph 8.0 mph 32% 0.00 in
17:13 54.6 °F 25.4 °F 29.83 in WNW 6.0 mph 11.0 mph 32% 0.00 in
17:18 54.5 °F 24.5 °F 29.83 in WNW 7.0 mph 12.0 mph 31% 0.00 in
17:23 54.3 °F 22.7 °F 29.83 in West 6.0 mph 12.0 mph 29% 0.00 in
17:29 54.3 °F 23.5 °F 29.83 in WNW 6.0 mph 13.0 mph 30% 0.00 in
17:33 54.3 °F 23.5 °F 29.84 in WNW 6.0 mph 8.0 mph 30% 0.00 in
17:39 54.3 °F 24.3 °F 29.84 in WNW 8.0 mph 11.0 mph 31% 0.00 in
17:44 54.2 °F 24.2 °F 29.84 in WNW 5.0 mph 7.0 mph 31% 0.00 in
17:49 54.0 °F 25.6 °F 29.84 in NW 6.0 mph 10.0 mph 33% 0.00 in
17:54 53.9 °F 24.0 °F 29.84 in WSW 12.0 mph 14.0 mph 31% 0.00 in
17:59 53.8 °F 24.6 °F 29.84 in WNW 5.0 mph 10.0 mph 32% 0.00 in
18:04 53.6 °F 23.7 °F 29.84 in NW 4.0 mph 12.0 mph 31% 0.00 in
18:09 53.3 °F 23.5 °F 29.84 in WNW 12.0 mph 14.0 mph 31% 0.00 in
18:14 53.0 °F 23.2 °F 29.84 in WNW 8.0 mph 13.0 mph 31% 0.00 in
18:19 52.8 °F 24.5 °F 29.84 in West 5.0 mph 9.0 mph 33% 0.00 in
18:24 52.4 °F 24.2 °F 29.84 in WNW 6.0 mph 7.0 mph 33% 0.00 in
18:29 52.2 °F 24.7 °F 29.85 in West 3.0 mph 8.0 mph 34% 0.00 in
18:34 51.7 °F 23.5 °F 29.85 in WSW 5.0 mph 9.0 mph 33% 0.00 in
18:39 51.4 °F 22.5 °F 29.85 in WNW 5.0 mph 10.0 mph 32% 0.00 in
18:44 51.0 °F 22.2 °F 29.85 in West 8.0 mph 9.0 mph 32% 0.00 in
18:49 50.8 °F 22.0 °F 29.86 in WNW 6.0 mph 10.0 mph 32% 0.00 in
18:54 50.6 °F 21.9 °F 29.86 in WNW 5.0 mph 9.0 mph 32% 0.00 in
18:59 50.1 °F 22.8 °F 29.86 in West 2.0 mph 6.0 mph 34% 0.00 in
19:04 49.7 °F 23.2 °F 29.86 in WNW 3.0 mph 6.0 mph 35% 0.00 in
19:09 49.3 °F 22.8 °F 29.86 in West 1.0 mph 4.0 mph 35% 0.00 in
19:14 49.0 °F 23.2 °F 29.86 in West 2.0 mph 5.0 mph 36% 0.00 in
19:19 48.7 °F 23.6 °F 29.86 in WNW 3.0 mph 3.0 mph 37% 0.00 in
19:24 48.4 °F 24.0 °F 29.86 in West 1.0 mph 2.0 mph 38% 0.00 in
19:29 48.1 °F 23.1 °F 29.86 in WNW 2.0 mph 3.0 mph 37% 0.00 in
19:34 47.9 °F 23.5 °F 29.87 in West 1.0 mph 2.0 mph 38% 0.00 in
19:39 47.9 °F 23.5 °F 29.87 in WNW 2.0 mph 3.0 mph 38% 0.00 in
19:44 47.7 °F 23.4 °F 29.87 in WNW 1.0 mph 3.0 mph 38% 0.00 in
19:49 47.6 °F 23.3 °F 29.87 in WNW 2.0 mph 4.0 mph 38% 0.00 in
19:54 47.3 °F 23.6 °F 29.88 in West 2.0 mph 3.0 mph 39% 0.00 in
19:59 47.3 °F 23.6 °F 29.88 in WNW 1.0 mph 3.0 mph 39% 0.00 in
20:04 47.3 °F 24.2 °F 29.88 in WNW 2.0 mph 3.0 mph 40% 0.00 in
20:09 47.1 °F 24.0 °F 29.88 in WNW 3.0 mph 3.0 mph 40% 0.00 in
20:14 47.0 °F 24.5 °F 29.88 in NW 3.0 mph 5.0 mph 41% 0.00 in
20:19 46.7 °F 24.8 °F 29.88 in WNW 4.0 mph 4.0 mph 42% 0.00 in
20:24 46.5 °F 24.7 °F 29.88 in WNW 3.0 mph 4.0 mph 42% 0.00 in
20:29 46.2 °F 25.0 °F 29.88 in WNW 3.0 mph 4.0 mph 43% 0.00 in
20:34 45.9 °F 25.2 °F 29.88 in WNW 3.0 mph 4.0 mph 44% 0.00 in
20:39 45.7 °F 25.6 °F 29.88 in WNW 6.0 mph 6.0 mph 45% 0.00 in
20:44 46.1 °F 24.3 °F 29.88 in NW 9.0 mph 13.0 mph 42% 0.00 in
20:49 46.7 °F 24.3 °F 29.89 in NW 6.0 mph 11.0 mph 41% 0.00 in
20:54 46.6 °F 24.2 °F 29.89 in NW 6.0 mph 9.0 mph 41% 0.00 in
20:59 46.4 °F 24.0 °F 29.89 in WNW 5.0 mph 10.0 mph 41% 0.00 in
21:04 46.2 °F 23.8 °F 29.89 in WNW 6.0 mph 9.0 mph 41% 0.00 in
21:09 46.0 °F 23.6 °F 29.89 in WNW 4.0 mph 8.0 mph 41% 0.00 in
21:14 46.0 °F 23.6 °F 29.89 in WNW 6.0 mph 10.0 mph 41% 0.00 in
21:19 46.0 °F 23.6 °F 29.90 in WNW 6.0 mph 8.0 mph 41% 0.00 in
21:24 45.7 °F 23.4 °F 29.90 in WNW 4.0 mph 8.0 mph 41% 0.00 in
21:29 45.5 °F 23.8 °F 29.90 in WNW 6.0 mph 6.0 mph 42% 0.00 in
21:34 45.3 °F 23.6 °F 29.90 in NW 5.0 mph 7.0 mph 42% 0.00 in
21:39 45.2 °F 23.5 °F 29.91 in NW 5.0 mph 9.0 mph 42% 0.00 in
21:44 45.1 °F 23.4 °F 29.91 in WNW 7.0 mph 8.0 mph 42% 0.00 in
21:49 44.9 °F 23.8 °F 29.91 in WNW 6.0 mph 7.0 mph 43% 0.00 in
21:54 44.9 °F 23.2 °F 29.91 in West 6.0 mph 8.0 mph 42% 0.00 in
21:59 45.1 °F 23.4 °F 29.91 in West 10.0 mph 10.0 mph 42% 0.00 in
22:04 45.0 °F 22.7 °F 29.92 in West 5.0 mph 10.0 mph 41% 0.00 in
22:09 44.7 °F 23.0 °F 29.92 in WNW 5.0 mph 7.0 mph 42% 0.00 in
22:14 44.7 °F 23.0 °F 29.92 in West 5.0 mph 9.0 mph 42% 0.00 in
22:19 44.4 °F 22.8 °F 29.92 in WNW 5.0 mph 8.0 mph 42% 0.00 in
22:24 44.1 °F 22.5 °F 29.92 in WNW 5.0 mph 8.0 mph 42% 0.00 in
22:29 43.9 °F 22.9 °F 29.93 in WNW 4.0 mph 7.0 mph 43% 0.00 in
22:34 43.7 °F 22.7 °F 29.93 in WNW 4.0 mph 6.0 mph 43% 0.00 in
22:39 43.6 °F 22.6 °F 29.93 in WNW 2.0 mph 7.0 mph 43% 0.00 in
22:44 43.4 °F 22.4 °F 29.93 in WNW 3.0 mph 7.0 mph 43% 0.00 in
22:49 43.3 °F 22.3 °F 29.93 in WNW 4.0 mph 5.0 mph 43% 0.00 in
22:54 42.9 °F 22.5 °F 29.93 in WNW 3.0 mph 4.0 mph 44% 0.00 in
22:59 42.7 °F 22.3 °F 29.93 in WNW 4.0 mph 6.0 mph 44% 0.00 in
23:04 42.5 °F 22.1 °F 29.93 in West 4.0 mph 4.0 mph 44% 0.00 in
23:09 42.2 °F 22.4 °F 29.93 in WNW 4.0 mph 4.0 mph 45% 0.00 in
23:14 41.9 °F 22.1 °F 29.93 in WNW 5.0 mph 5.0 mph 45% 0.00 in
23:19 41.7 °F 22.5 °F 29.93 in West 4.0 mph 6.0 mph 46% 0.00 in
23:24 41.5 °F 22.3 °F 29.93 in West 1.0 mph 3.0 mph 46% 0.00 in
23:29 41.5 °F 22.3 °F 29.93 in WNW 1.0 mph 3.0 mph 46% 0.00 in
23:35 41.4 °F 22.2 °F 29.93 in WNW 2.0 mph 4.0 mph 46% 0.00 in
23:40 41.3 °F 22.1 °F 29.93 in West 2.0 mph 3.0 mph 46% 0.00 in
23:45 41.2 °F 22.0 °F 29.93 in WNW 2.0 mph 5.0 mph 46% 0.00 in
23:50 41.1 °F 21.9 °F 29.92 in WNW 2.0 mph 5.0 mph 46% 0.00 in
23:55 40.8 °F 21.6 °F 29.92 in NW 2.0 mph 4.0 mph 46% 0.00 in
Compliments of Weather Underground